Terminal Aerodrome Forecast
Issued by NWS Denver/Boulder, CO

Home | Current Version | Previous Version | Text Only | Print | Product List | Glossary On
Versions: 1 2 3 4 5 6 7 8 9 10 11 12 13 14 15 16 17 18 19 20 21 22 23 24 25 26 27 28 29 30 31 32 33 34 35 36 37 38 39 40 41 42 43 44 45 46 47 48 49 50
000
FTUS45 KBOU 220858 AAB
TAFDEN
TAF AMD
KDEN 220858Z 2209/2312 23010KT P6SM FEW120
     FM221100 36010KT P6SM FEW220
     FM221400 02009KT P6SM FEW220
     FM222100 07011KT P6SM SCT100 BKN220
     FM230200 14009KT P6SM FEW100 BKN220=

USA.gov is the U.S. government's official web portal to all federal, state and local government web resources and services.